createdAt,value
2019-05-19T08:22:08.887Z,18.74
2019-05-19T08:24:16.619Z,18.70
2019-05-19T08:26:23.422Z,18.71
2019-05-19T08:28:29.928Z,18.78
2019-05-19T08:30:36.485Z,18.80
2019-05-19T08:32:43.053Z,18.82
2019-05-19T08:34:49.511Z,18.83
2019-05-19T08:36:56.044Z,18.85
2019-05-19T08:39:05.164Z,18.72
2019-05-19T08:41:11.620Z,18.58
2019-05-19T08:43:18.189Z,18.58
2019-05-19T08:45:25.015Z,18.61
2019-05-19T08:47:31.576Z,18.67
2019-05-19T08:49:37.971Z,18.65
2019-05-19T08:51:47.915Z,18.61
2019-05-19T08:53:54.158Z,18.73
2019-05-19T08:56:00.589Z,18.85
2019-05-19T08:58:07.132Z,19.11
2019-05-19T09:00:14.674Z,19.51
2019-05-19T09:02:21.140Z,19.77
2019-05-19T09:04:27.662Z,19.84
2019-05-19T09:06:34.499Z,19.82
2019-05-19T09:08:41.058Z,19.89
2019-05-19T09:10:47.582Z,19.81
2019-05-19T09:12:54.019Z,19.89
2019-05-19T09:15:00.463Z,20.12
2019-05-19T09:17:08.275Z,20.33
2019-05-19T09:19:14.655Z,20.44
2019-05-19T09:21:21.236Z,20.40
2019-05-19T09:23:28.063Z,20.71
2019-05-19T09:25:34.457Z,20.90
2019-05-19T09:27:40.953Z,21.25
2019-05-19T09:29:47.343Z,21.49
2019-05-19T09:31:55.523Z,21.74
2019-05-19T09:34:02.064Z,22.02
2019-05-19T09:36:08.529Z,22.25
2019-05-19T09:38:14.935Z,22.15
2019-05-19T09:40:21.522Z,22.12
2019-05-19T09:42:27.979Z,22.15
2019-05-19T09:44:34.367Z,22.02
2019-05-19T09:46:40.851Z,22.34
2019-05-19T09:48:48.956Z,22.33
2019-05-19T09:50:55.496Z,22.00
2019-05-19T09:53:02.064Z,21.98
2019-05-19T09:55:09.231Z,21.96
2019-05-19T09:57:15.800Z,21.83
2019-05-19T09:59:22.194Z,22.17
2019-05-19T10:01:28.880Z,22.30
2019-05-19T10:03:35.470Z,22.30
2019-05-19T10:05:41.854Z,22.80
2019-05-19T10:07:48.462Z,22.97
2019-05-19T10:10:02.875Z,22.67
2019-05-19T10:12:10.542Z,22.62
2019-05-19T10:14:17.104Z,22.54
2019-05-19T10:16:23.624Z,22.18
2019-05-19T10:18:30.141Z,22.01
2019-05-19T10:20:36.674Z,21.70
2019-05-19T10:22:43.425Z,21.47
2019-05-19T10:25:04.431Z,21.56
2019-05-19T10:26:58.313Z,21.74
2019-05-19T10:29:04.915Z,21.62
2019-05-19T10:31:12.525Z,21.58
2019-05-19T10:33:19.047Z,21.52
2019-05-19T10:35:25.576Z,21.31
2019-05-19T10:37:31.956Z,21.23
2019-05-19T10:39:38.496Z,21.65
2019-05-19T10:41:45.141Z,21.51
2019-05-19T10:43:53.242Z,21.79
2019-05-19T10:45:59.738Z,21.84
2019-05-19T10:48:06.200Z,21.58
2019-05-19T10:50:13.340Z,21.55
2019-05-19T10:52:19.925Z,21.48
2019-05-19T10:54:26.499Z,21.50
2019-05-19T10:56:32.966Z,21.64
2019-05-19T10:58:39.398Z,21.77
2019-05-19T11:00:46.034Z,22.11
2019-05-19T11:02:52.482Z,22.44
2019-05-19T11:04:58.937Z,22.39
2019-05-19T11:07:05.535Z,22.22
2019-05-19T11:09:12.054Z,21.94
2019-05-19T11:11:18.656Z,21.61
2019-05-19T11:13:25.093Z,21.81
2019-05-19T11:15:31.583Z,22.15
2019-05-19T11:17:38.016Z,22.17
2019-05-19T11:19:44.569Z,22.21
2019-05-19T11:21:51.033Z,22.27
2019-05-19T11:23:57.629Z,22.49
2019-05-19T11:26:04.116Z,22.57
2019-05-19T11:28:10.588Z,22.94
2019-05-19T11:30:17.192Z,22.80
2019-05-19T11:32:23.643Z,22.89
2019-05-19T11:34:31.528Z,23.13
2019-05-19T11:36:37.931Z,23.60
2019-05-19T11:38:44.430Z,23.48
2019-05-19T11:40:51.275Z,23.60
2019-05-19T11:42:57.764Z,23.42
2019-05-19T11:45:06.428Z,23.28
2019-05-19T11:47:12.805Z,22.88
2019-05-19T11:49:20.222Z,22.84
2019-05-19T11:51:26.601Z,22.74
2019-05-19T11:53:33.115Z,22.65
2019-05-19T11:55:39.644Z,22.74
2019-05-19T11:57:46.098Z,22.88
2019-05-19T11:59:52.560Z,22.66
2019-05-19T12:01:59.022Z,22.64
2019-05-19T12:04:05.593Z,22.71
2019-05-19T12:06:12.123Z,23.04
2019-05-19T12:08:18.559Z,22.97
2019-05-19T12:10:24.988Z,22.91
2019-05-19T12:12:31.423Z,22.86
2019-05-19T12:14:37.889Z,22.48
2019-05-19T12:16:44.392Z,22.64
2019-05-19T12:18:50.851Z,22.64
2019-05-19T12:20:57.330Z,22.69
2019-05-19T12:23:03.906Z,22.78
2019-05-19T12:25:10.605Z,23.01
2019-05-19T12:27:16.987Z,23.06
2019-05-19T12:29:23.544Z,23.03
2019-05-19T12:31:29.950Z,22.90
2019-05-19T12:33:50.777Z,22.92
2019-05-19T12:35:44.558Z,22.84
2019-05-19T12:37:50.992Z,22.78
2019-05-19T12:39:58.318Z,23.01
2019-05-19T12:42:04.852Z,23.08
2019-05-19T12:44:11.308Z,23.09
2019-05-19T12:46:19.390Z,23.09
2019-05-19T12:48:25.859Z,23.17
2019-05-19T12:50:32.469Z,23.10
2019-05-19T12:52:39.210Z,23.35
2019-05-19T12:54:45.758Z,23.64
2019-05-19T12:56:52.212Z,23.63
2019-05-19T12:58:58.723Z,23.46
2019-05-19T13:01:07.029Z,23.31
2019-05-19T13:03:13.601Z,23.07
2019-05-19T13:05:23.636Z,23.24
2019-05-19T13:07:29.748Z,22.72
2019-05-19T13:09:36.256Z,22.65
2019-05-19T13:11:42.684Z,22.56
2019-05-19T13:13:49.140Z,22.63
2019-05-19T13:15:55.521Z,23.01
2019-05-19T13:18:09.272Z,23.03
2019-05-19T13:20:16.699Z,22.87
2019-05-19T13:22:23.163Z,22.76
2019-05-19T13:24:29.680Z,22.80
2019-05-19T13:26:36.193Z,22.95
2019-05-19T13:28:43.797Z,22.85
2019-05-19T13:30:50.403Z,22.89
2019-05-19T13:32:56.806Z,22.53
2019-05-19T13:35:03.490Z,22.56
2019-05-19T13:37:10.094Z,22.75
2019-05-19T13:39:16.538Z,22.90
2019-05-19T13:41:22.921Z,22.81
2019-05-19T13:43:29.402Z,22.91
2019-05-19T13:45:35.837Z,22.79
2019-05-19T13:47:43.445Z,22.71
2019-05-19T13:49:49.868Z,22.78
2019-05-19T13:51:56.255Z,22.87
2019-05-19T13:54:03.778Z,23.12
2019-05-19T13:56:10.280Z,23.24
2019-05-19T13:58:16.679Z,23.46
2019-05-19T14:00:23.479Z,23.68
2019-05-19T14:02:29.973Z,23.98
2019-05-19T14:04:36.522Z,24.18
2019-05-19T14:06:43.009Z,24.11
2019-05-19T14:08:49.394Z,23.69
2019-05-19T14:10:59.242Z,23.10
2019-05-19T14:13:05.869Z,23.29
2019-05-19T14:15:14.238Z,23.34
2019-05-19T14:17:20.623Z,23.19
2019-05-19T14:19:27.109Z,23.04
2019-05-19T14:21:33.628Z,23.10
2019-05-19T14:23:40.060Z,23.39
2019-05-19T14:25:46.552Z,23.58
2019-05-19T14:27:52.945Z,23.41
2019-05-19T14:29:59.323Z,23.38
2019-05-19T14:32:05.818Z,23.14
2019-05-19T14:34:12.238Z,22.91
2019-05-19T14:36:18.769Z,22.74
2019-05-19T14:38:25.176Z,22.60
2019-05-19T14:40:31.660Z,22.31
2019-05-19T14:42:42.537Z,22.22
2019-05-19T14:44:49.795Z,22.19
2019-05-19T14:46:56.205Z,22.20
2019-05-19T14:49:02.676Z,22.35
2019-05-19T14:51:09.137Z,22.61
2019-05-19T14:53:15.736Z,22.76
2019-05-19T14:55:22.344Z,23.00
2019-05-19T14:57:43.563Z,23.18
2019-05-19T14:59:36.991Z,23.36
2019-05-19T15:01:43.589Z,23.46
2019-05-19T15:03:50.168Z,23.55
2019-05-19T15:05:56.556Z,23.66
2019-05-19T15:08:03.011Z,23.59
2019-05-19T15:10:11.556Z,23.39
2019-05-19T15:12:17.955Z,23.37
2019-05-19T15:14:24.346Z,23.28
2019-05-19T15:16:30.771Z,22.94
2019-05-19T15:18:37.234Z,22.92
2019-05-19T15:20:43.827Z,22.84
2019-05-19T15:22:53.336Z,22.65
2019-05-19T15:24:59.771Z,22.64
2019-05-19T15:27:06.412Z,22.58
2019-05-19T15:29:14.683Z,22.61
2019-05-19T15:31:21.126Z,22.63
2019-05-19T15:33:27.653Z,22.74
2019-05-19T15:35:34.324Z,22.91
2019-05-19T15:37:40.782Z,23.13
2019-05-19T15:39:48.343Z,23.28
2019-05-19T15:41:54.732Z,23.40
2019-05-19T15:44:01.309Z,23.52
2019-05-19T15:46:09.088Z,23.50
2019-05-19T15:48:16.702Z,23.26
2019-05-19T15:50:24.839Z,23.09
2019-05-19T15:52:31.392Z,22.72
2019-05-19T15:54:37.789Z,22.58
2019-05-19T15:56:44.195Z,22.45
2019-05-19T15:58:51.422Z,22.44
2019-05-19T16:01:00.499Z,22.40
2019-05-19T16:03:07.136Z,22.30
2019-05-19T16:05:15.805Z,22.26
2019-05-19T16:07:22.182Z,22.26
2019-05-19T16:09:28.586Z,22.22
2019-05-19T16:11:34.977Z,22.20
2019-05-19T16:13:41.379Z,22.13
2019-05-19T16:15:49.336Z,22.20
2019-05-19T16:17:55.791Z,22.28
2019-05-19T16:20:02.615Z,22.36
2019-05-19T16:22:09.111Z,22.44
2019-05-19T16:24:15.582Z,22.52
2019-05-19T16:26:22.208Z,22.57
2019-05-19T16:28:31.002Z,22.62
2019-05-19T16:30:36.907Z,22.62
2019-05-19T16:32:43.573Z,22.65
2019-05-19T16:34:50.041Z,22.66
2019-05-19T16:36:56.664Z,22.61
2019-05-19T16:39:04.230Z,22.56
2019-05-19T16:41:12.340Z,22.57
2019-05-19T16:43:18.938Z,22.58
2019-05-19T16:45:25.636Z,22.61
2019-05-19T16:47:32.033Z,22.57
2019-05-19T16:49:38.426Z,22.50
2019-05-19T16:51:45.444Z,22.40
2019-05-19T16:53:53.618Z,22.34
2019-05-19T16:56:00.119Z,22.32
2019-05-19T16:58:19.904Z,22.33
2019-05-19T17:00:15.277Z,22.30
2019-05-19T17:02:21.766Z,22.30
2019-05-19T17:04:28.295Z,22.31
2019-05-19T17:06:34.691Z,22.25
2019-05-19T17:08:42.704Z,22.24
2019-05-19T17:10:49.302Z,22.20
2019-05-19T17:12:55.860Z,22.19
2019-05-19T17:15:02.776Z,22.15
2019-05-19T17:17:09.424Z,22.13
2019-05-19T17:19:15.835Z,22.10
2019-05-19T17:21:22.228Z,22.08
2019-05-19T17:23:28.633Z,22.06
2019-05-19T17:25:35.135Z,22.01
2019-05-19T17:27:41.693Z,21.94
2019-05-19T17:29:48.078Z,21.86
2019-05-19T17:32:05.661Z,21.79
2019-05-19T17:34:02.682Z,21.74
2019-05-19T17:36:09.330Z,21.66
2019-05-19T17:38:15.733Z,21.58
2019-05-19T17:40:22.937Z,21.52
2019-05-19T17:42:29.496Z,21.46
2019-05-19T17:44:35.958Z,21.41
2019-05-19T17:46:42.404Z,21.35
2019-05-19T17:48:48.813Z,21.30
2019-05-19T17:50:55.403Z,21.25
2019-05-19T17:53:02.329Z,21.21
2019-05-19T17:55:10.850Z,21.16
2019-05-19T17:57:18.068Z,21.10
2019-05-19T17:59:26.004Z,21.07
2019-05-19T18:01:33.756Z,21.02
2019-05-19T18:03:41.120Z,20.95
2019-05-19T18:05:49.195Z,20.91
2019-05-19T18:07:55.872Z,20.87
2019-05-19T18:10:02.530Z,20.80
2019-05-19T18:12:10.256Z,20.74
2019-05-19T18:14:16.646Z,20.69
2019-05-19T18:16:23.067Z,20.64
2019-05-19T18:18:29.530Z,20.61
2019-05-19T18:20:36.046Z,20.55
2019-05-19T18:22:42.511Z,20.51
2019-05-19T18:24:48.993Z,20.46
2019-05-19T18:26:55.470Z,20.42
2019-05-19T18:29:03.079Z,20.36
2019-05-19T18:31:09.452Z,20.31
2019-05-19T18:33:15.854Z,20.26
2019-05-19T18:35:22.427Z,20.23
2019-05-19T18:37:28.911Z,20.21
2019-05-19T18:39:36.473Z,20.16
2019-05-19T18:41:43.029Z,20.13
2019-05-19T18:43:49.492Z,20.09
2019-05-19T18:45:56.002Z,20.07
2019-05-19T18:48:02.475Z,20.05
2019-05-19T18:50:11.939Z,20.01
2019-05-19T18:52:18.371Z,19.97
2019-05-19T18:54:24.755Z,19.92
2019-05-19T18:56:31.283Z,19.85
2019-05-19T18:58:37.734Z,19.79
2019-05-19T19:00:44.324Z,19.73
2019-05-19T19:02:50.899Z,19.68
2019-05-19T19:04:57.442Z,19.67
2019-05-19T19:07:03.871Z,19.63
2019-05-19T19:09:10.872Z,19.62
2019-05-19T19:11:17.264Z,19.60
2019-05-19T19:13:23.717Z,19.57
2019-05-19T19:15:30.343Z,19.52
2019-05-19T19:17:36.836Z,19.49
2019-05-19T19:19:43.296Z,19.46
2019-05-19T19:21:49.836Z,19.44
2019-05-19T19:23:56.216Z,19.40
2019-05-19T19:26:02.803Z,19.38
2019-05-19T19:28:09.276Z,19.36
2019-05-19T19:30:17.229Z,19.33
2019-05-19T19:32:25.664Z,19.32
2019-05-19T19:34:32.137Z,19.30
2019-05-19T19:36:38.543Z,19.28
2019-05-19T19:38:45.037Z,19.25
2019-05-19T19:40:54.064Z,19.20
2019-05-19T19:43:01.817Z,19.17
2019-05-19T19:45:09.740Z,19.12
2019-05-19T19:47:16.273Z,19.07
2019-05-19T19:49:22.677Z,19.02
2019-05-19T19:51:29.083Z,18.97
2019-05-19T19:53:35.633Z,18.93
2019-05-19T19:55:42.149Z,18.90
2019-05-19T19:57:48.763Z,18.87
2019-05-19T19:59:55.238Z,18.84
2019-05-19T20:02:01.630Z,18.82
2019-05-19T20:04:08.134Z,18.80
2019-05-19T20:06:14.838Z,18.80
2019-05-19T20:08:22.275Z,18.77
2019-05-19T20:10:28.793Z,18.75
2019-05-19T20:12:35.250Z,18.74
2019-05-19T20:14:42.792Z,18.70
2019-05-19T20:16:49.199Z,18.65
2019-05-19T20:18:57.463Z,18.62
2019-05-19T20:21:04.157Z,18.59
2019-05-19T20:23:14.819Z,18.55
2019-05-19T20:25:22.990Z,18.50
2019-05-19T20:27:29.643Z,18.49
2019-05-19T20:29:36.323Z,18.46
2019-05-19T20:31:43.023Z,18.44
2019-05-19T20:33:49.500Z,18.42
2019-05-19T20:35:56.278Z,18.38
2019-05-19T20:38:03.161Z,18.36
2019-05-19T20:40:18.051Z,18.35
2019-05-19T20:42:27.413Z,18.34
2019-05-19T20:44:34.085Z,18.31
2019-05-19T20:46:43.595Z,18.30
2019-05-19T20:48:51.806Z,18.30
2019-05-19T20:51:00.688Z,18.29
2019-05-19T20:53:06.480Z,18.30
2019-05-19T20:55:46.050Z,18.31
2019-05-19T20:57:49.044Z,18.32
2019-05-19T20:59:55.655Z,18.33
2019-05-19T21:02:02.224Z,18.34
2019-05-19T21:04:08.686Z,18.35
2019-05-19T21:06:15.368Z,18.35
2019-05-19T21:08:21.859Z,18.36
2019-05-19T21:10:28.542Z,18.35
2019-05-19T21:12:36.581Z,18.35
2019-05-19T21:14:43.097Z,18.34
2019-05-19T21:16:49.641Z,18.38
2019-05-19T21:18:56.184Z,18.35
2019-05-19T21:21:02.926Z,18.34
2019-05-19T21:23:10.251Z,18.34
2019-05-19T21:25:16.761Z,18.30
2019-05-19T21:27:24.809Z,18.26
2019-05-19T21:29:31.174Z,18.24
2019-05-19T21:31:38.843Z,18.22
2019-05-19T21:33:45.252Z,18.24
2019-05-19T21:35:51.749Z,18.26
2019-05-19T21:37:58.226Z,18.27
2019-05-19T21:40:08.608Z,18.25
2019-05-19T21:42:15.114Z,18.23
2019-05-19T21:44:21.504Z,18.22
2019-05-19T21:46:27.906Z,18.19
2019-05-19T21:48:37.057Z,18.16
2019-05-19T21:50:43.448Z,18.13
2019-05-19T21:52:49.839Z,18.11
2019-05-19T21:54:56.275Z,18.07
2019-05-19T21:57:02.794Z,18.03
2019-05-19T21:59:09.191Z,18.03
2019-05-19T22:01:23.345Z,17.98
2019-05-19T22:03:26.267Z,17.97
2019-05-19T22:05:32.762Z,17.96
2019-05-19T22:07:57.149Z,17.94
2019-05-19T22:10:04.382Z,17.90
2019-05-19T22:12:10.998Z,17.88
2019-05-19T22:14:17.364Z,17.85
2019-05-19T22:16:23.790Z,17.86
2019-05-19T22:18:30.254Z,17.85
2019-05-19T22:20:36.846Z,17.86
2019-05-19T22:22:43.289Z,17.84
2019-05-19T22:24:49.719Z,17.83
2019-05-19T22:26:56.110Z,17.80
2019-05-19T22:29:02.627Z,17.78
2019-05-19T22:31:09.088Z,17.76
2019-05-19T22:33:15.605Z,17.76
2019-05-19T22:35:22.113Z,17.74
2019-05-19T22:37:28.558Z,17.71
2019-05-19T22:39:35.025Z,17.68
2019-05-19T22:41:41.450Z,17.66
2019-05-19T22:43:47.901Z,17.65
2019-05-19T22:45:54.299Z,17.63
2019-05-19T22:48:00.847Z,17.61
2019-05-19T22:50:09.455Z,17.59
2019-05-19T22:52:16.898Z,17.56
2019-05-19T22:54:23.315Z,17.54
2019-05-19T22:56:29.684Z,17.54
2019-05-19T22:58:36.186Z,17.52
2019-05-19T23:00:43.808Z,17.51
2019-05-19T23:02:51.189Z,17.52
2019-05-19T23:08:44.754Z,17.46
2019-05-19T23:10:52.222Z,17.40
2019-05-19T23:12:58.675Z,17.40
2019-05-19T23:15:07.998Z,17.38
2019-05-19T23:17:14.651Z,17.37
2019-05-19T23:19:21.045Z,17.33
2019-05-19T23:21:27.458Z,17.32
2019-05-19T23:23:33.907Z,17.28
2019-05-19T23:25:40.356Z,17.25
2019-05-19T23:27:46.935Z,17.23
2019-05-19T23:29:54.497Z,17.21
2019-05-19T23:32:07.083Z,17.19
2019-05-19T23:34:10.563Z,17.18
2019-05-19T23:36:17.096Z,17.15
2019-05-19T23:38:25.001Z,17.15
2019-05-19T23:40:31.481Z,17.12
2019-05-19T23:42:37.950Z,17.12
2019-05-19T23:44:44.452Z,17.11
2019-05-19T23:46:50.930Z,17.09
2019-05-19T23:48:57.326Z,17.09
2019-05-19T23:51:03.825Z,17.06
2019-05-19T23:53:10.220Z,17.05
2019-05-19T23:55:16.751Z,17.06
2019-05-19T23:57:23.241Z,17.05
2019-05-19T23:59:29.987Z,17.05
